createdAt,value
2018-02-19T00:00:56.954Z,86.20
2018-02-19T00:03:24.552Z,86.10
2018-02-19T00:05:52.111Z,85.90
2018-02-19T00:08:19.665Z,86.10
2018-02-19T00:10:47.264Z,86.30
2018-02-19T00:13:14.787Z,86.10
2018-02-19T00:15:43.633Z,86.10
2018-02-19T00:18:11.237Z,86.00
2018-02-19T00:20:38.777Z,86.20
2018-02-19T00:23:07.079Z,85.90
2018-02-19T00:25:34.813Z,85.90
2018-02-19T00:28:02.433Z,85.90
2018-02-19T00:30:29.996Z,85.20
2018-02-19T00:32:57.535Z,85.40
2018-02-19T00:35:25.991Z,85.80
2018-02-19T00:37:53.534Z,85.70
2018-02-19T00:40:21.875Z,85.70
2018-02-19T00:42:50.188Z,85.80
2018-02-19T00:45:17.728Z,85.80
2018-02-19T00:47:46.032Z,85.40
2018-02-19T00:50:13.562Z,85.40
2018-02-19T00:52:42.165Z,85.70
2018-02-19T00:55:09.699Z,85.70
2018-02-19T00:57:37.241Z,85.90
2018-02-19T01:00:04.849Z,85.90
2018-02-19T01:02:33.143Z,85.90
2018-02-19T01:05:00.692Z,85.80
2018-02-19T01:07:29.069Z,85.90
2018-02-19T01:09:58.108Z,85.70
2018-02-19T01:12:25.655Z,85.60
2018-02-19T01:14:53.974Z,85.90
2018-02-19T01:17:21.537Z,85.90
2018-02-19T01:19:49.076Z,85.40
2018-02-19T01:22:16.606Z,85.40
2018-02-19T01:24:44.305Z,85.40
2018-02-19T01:27:11.855Z,85.60
2018-02-19T01:29:40.186Z,85.40
2018-02-19T01:32:07.730Z,85.40
2018-02-19T01:34:35.261Z,85.70
2018-02-19T01:37:03.543Z,86.10
2018-02-19T01:39:31.859Z,86.00
2018-02-19T01:41:59.404Z,86.00
2018-02-19T01:44:26.988Z,86.00
2018-02-19T01:46:54.534Z,85.60
2018-02-19T01:49:22.889Z,85.10
2018-02-19T01:51:50.597Z,85.10
2018-02-19T01:54:18.163Z,84.90
2018-02-19T01:56:45.685Z,84.60
2018-02-19T01:59:13.219Z,84.40
2018-02-19T02:01:40.758Z,84.20
2018-02-19T02:04:08.281Z,84.30
2018-02-19T02:06:36.187Z,84.50
2018-02-19T02:09:04.488Z,85.00
2018-02-19T02:11:32.019Z,85.00
2018-02-19T02:14:00.326Z,85.00
2018-02-19T02:16:27.877Z,84.90
2018-02-19T02:18:56.205Z,84.90
2018-02-19T02:21:23.726Z,84.80
2018-02-19T02:23:52.027Z,84.50
2018-02-19T02:26:19.593Z,84.50
2018-02-19T02:28:47.138Z,85.00
2018-02-19T02:31:15.543Z,84.10
2018-02-19T02:33:43.074Z,84.10
2018-02-19T02:36:11.387Z,83.60
2018-02-19T02:38:38.920Z,84.10
2018-02-19T02:41:07.239Z,84.80
2018-02-19T02:43:34.802Z,84.50
2018-02-19T02:46:02.330Z,83.80
2018-02-19T02:48:29.865Z,84.40
2018-02-19T02:50:57.406Z,84.50
2018-02-19T02:53:25.051Z,83.80
2018-02-19T02:55:53.375Z,83.80
2018-02-19T02:58:20.914Z,83.80
2018-02-19T03:00:48.457Z,83.80
2018-02-19T03:03:16.768Z,83.90
2018-02-19T03:05:44.317Z,83.90
2018-02-19T03:08:11.934Z,84.20
2018-02-19T03:10:39.473Z,84.40
2018-02-19T03:13:07.005Z,83.90
2018-02-19T03:15:34.560Z,83.90
2018-02-19T03:18:02.939Z,83.90
2018-02-19T03:20:30.577Z,83.90
2018-02-19T03:22:58.112Z,84.00
2018-02-19T03:25:25.642Z,84.10
2018-02-19T03:27:53.978Z,84.40
2018-02-19T03:30:21.642Z,84.40
2018-02-19T03:32:49.584Z,84.40
2018-02-19T03:35:17.128Z,83.80
2018-02-19T03:37:45.432Z,84.80
2018-02-19T03:40:12.968Z,84.00
2018-02-19T03:42:40.575Z,84.40
2018-02-19T03:45:08.128Z,84.10
2018-02-19T03:47:35.654Z,83.90
2018-02-19T03:50:03.187Z,84.00
2018-02-19T03:52:30.724Z,84.00
2018-02-19T03:54:58.253Z,83.90
2018-02-19T03:57:25.801Z,84.00
2018-02-19T03:59:53.424Z,83.70
2018-02-19T04:02:20.957Z,83.90
2018-02-19T04:04:48.485Z,83.90
2018-02-19T04:07:16.013Z,83.80
2018-02-19T04:09:43.581Z,83.90
2018-02-19T04:12:11.129Z,83.90
2018-02-19T04:14:39.424Z,84.00
2018-02-19T04:17:06.953Z,84.00
2018-02-19T04:19:35.515Z,84.00
2018-02-19T04:22:03.068Z,84.00
2018-02-19T04:24:30.622Z,84.00
2018-02-19T04:26:58.191Z,84.00
2018-02-19T04:29:25.731Z,84.00
2018-02-19T04:31:54.034Z,83.90
2018-02-19T04:34:21.591Z,83.90
2018-02-19T04:36:49.117Z,83.80
2018-02-19T04:39:16.798Z,83.80
2018-02-19T04:41:45.115Z,84.00
2018-02-19T04:44:30.284Z,84.00
2018-02-19T04:46:57.890Z,84.00
2018-02-19T04:49:25.418Z,83.70
2018-02-19T04:51:52.953Z,83.20
2018-02-19T04:54:21.262Z,83.60
2018-02-19T04:56:48.842Z,83.60
2018-02-19T04:59:16.388Z,84.00
2018-02-19T05:01:43.924Z,83.70
2018-02-19T05:04:12.232Z,84.00
2018-02-19T05:06:39.763Z,83.90
2018-02-19T05:09:07.296Z,82.90
2018-02-19T05:11:35.341Z,82.80
2018-02-19T05:14:02.923Z,83.20
2018-02-19T05:16:31.184Z,84.40
2018-02-19T05:18:58.777Z,84.40
2018-02-19T05:21:26.337Z,85.00
2018-02-19T05:23:53.914Z,84.80
2018-02-19T05:26:21.442Z,84.50
2018-02-19T05:28:48.976Z,84.40
2018-02-19T05:31:16.518Z,84.10
2018-02-19T05:33:44.054Z,83.90
2018-02-19T05:36:12.023Z,84.40
2018-02-19T05:38:39.560Z,84.40
2018-02-19T05:41:07.858Z,84.20
2018-02-19T05:43:35.489Z,84.10
2018-02-19T05:46:03.043Z,84.00
2018-02-19T05:48:30.620Z,84.00
2018-02-19T05:50:58.174Z,84.40
2018-02-19T05:53:25.711Z,84.00
2018-02-19T05:55:53.306Z,83.40
2018-02-19T05:58:20.835Z,83.60
2018-02-19T06:00:48.395Z,83.90
2018-02-19T06:03:15.940Z,84.00
2018-02-19T06:05:44.235Z,84.60
2018-02-19T06:08:11.778Z,84.60
2018-02-19T06:10:40.074Z,85.10
2018-02-19T06:13:07.641Z,84.60
2018-02-19T06:15:35.199Z,84.00
2018-02-19T06:18:03.491Z,84.30
2018-02-19T06:20:31.032Z,84.30
2018-02-19T06:22:58.561Z,84.00
2018-02-19T06:25:26.486Z,85.10
2018-02-19T06:27:54.805Z,84.10
2018-02-19T06:30:22.398Z,84.00
2018-02-19T06:32:49.926Z,84.00
2018-02-19T06:35:17.460Z,83.70
2018-02-19T06:37:45.787Z,83.60
2018-02-19T06:40:13.326Z,83.60
2018-02-19T06:42:40.863Z,83.20
2018-02-19T06:45:08.403Z,83.70
2018-02-19T06:47:35.939Z,82.40
2018-02-19T06:50:03.881Z,82.40
2018-02-19T06:52:32.195Z,82.60
2018-02-19T06:54:59.780Z,82.60
2018-02-19T06:57:27.327Z,82.40
2018-02-19T06:59:54.864Z,82.30
2018-02-19T07:02:23.186Z,81.70
2018-02-19T07:04:50.739Z,81.60
2018-02-19T07:07:18.277Z,81.70
2018-02-19T07:09:46.635Z,82.50
2018-02-19T07:12:14.170Z,82.50
2018-02-19T07:14:41.735Z,82.40
2018-02-19T07:17:09.263Z,82.50
2018-02-19T07:19:36.849Z,81.30
2018-02-19T07:22:05.115Z,80.40
2018-02-19T07:24:32.634Z,80.40
2018-02-19T07:27:00.200Z,80.60
2018-02-19T07:29:27.768Z,81.00
2018-02-19T07:31:55.332Z,81.50
2018-02-19T07:34:22.878Z,81.40
2018-02-19T07:36:50.417Z,80.90
2018-02-19T07:39:17.976Z,80.50
2018-02-19T07:41:45.530Z,80.20
2018-02-19T07:44:13.121Z,79.90
2018-02-19T07:46:41.384Z,79.90
2018-02-19T07:49:08.946Z,79.80
2018-02-19T07:51:36.627Z,79.60
2018-02-19T07:54:04.153Z,79.30
2018-02-19T07:56:32.456Z,79.40
2018-02-19T07:59:00.010Z,79.40
2018-02-19T08:01:28.341Z,79.50
2018-02-19T08:03:55.876Z,79.50
2018-02-19T08:06:23.417Z,79.50
2018-02-19T08:08:50.939Z,78.90
2018-02-19T08:11:18.462Z,79.30
2018-02-19T08:13:46.763Z,77.60
2018-02-19T08:16:14.332Z,77.50
2018-02-19T08:18:41.867Z,77.90
2018-02-19T08:21:10.176Z,77.40
2018-02-19T08:23:37.721Z,77.40
2018-02-19T08:26:06.018Z,78.00
2018-02-19T08:28:33.571Z,77.90
2018-02-19T08:31:01.118Z,77.40
2018-02-19T08:33:28.646Z,77.60
2018-02-19T08:35:56.199Z,77.30
2018-02-19T08:38:23.730Z,77.50
2018-02-19T08:40:52.060Z,77.00
2018-02-19T08:43:19.610Z,77.00
2018-02-19T08:45:47.149Z,76.80
2018-02-19T08:48:14.674Z,76.30
2018-02-19T08:50:42.219Z,76.30
2018-02-19T08:53:10.871Z,76.20
2018-02-19T08:55:38.405Z,75.60
2018-02-19T08:58:05.935Z,74.20
2018-02-19T09:00:33.477Z,75.50
2018-02-19T09:03:01.032Z,75.00
2018-02-19T09:05:28.614Z,76.00
2018-02-19T09:07:56.185Z,75.90
2018-02-19T09:10:23.739Z,76.10
2018-02-19T09:12:51.290Z,75.10
2018-02-19T09:15:19.610Z,73.90
2018-02-19T09:17:47.187Z,73.90
2018-02-19T09:20:14.720Z,73.50
2018-02-19T09:22:42.246Z,73.20
2018-02-19T09:25:10.569Z,73.30
2018-02-19T09:27:38.127Z,73.20
2018-02-19T09:30:05.985Z,72.60
2018-02-19T09:32:34.291Z,73.20
2018-02-19T09:35:01.809Z,73.20
2018-02-19T09:37:29.376Z,71.90
2018-02-19T09:39:56.935Z,72.00
2018-02-19T09:42:24.503Z,72.90
2018-02-19T09:44:52.048Z,73.10
2018-02-19T09:47:19.593Z,71.70
2018-02-19T09:49:47.126Z,71.70
2018-02-19T09:52:14.668Z,71.30
2018-02-19T09:54:42.267Z,71.50
2018-02-19T09:57:09.802Z,70.80
2018-02-19T09:59:38.118Z,70.10
2018-02-19T10:02:05.683Z,70.10
2018-02-19T10:04:33.206Z,70.10
2018-02-19T10:07:00.772Z,70.10
2018-02-19T10:09:28.323Z,69.70
2018-02-19T10:11:55.863Z,70.00
2018-02-19T10:14:23.414Z,69.00
2018-02-19T10:16:50.955Z,68.80
2018-02-19T10:19:19.291Z,67.80
2018-02-19T10:21:46.833Z,67.80
2018-02-19T10:24:14.423Z,68.60
2018-02-19T10:26:41.942Z,67.60
2018-02-19T10:29:09.515Z,67.90
2018-02-19T10:31:37.135Z,68.00
2018-02-19T10:34:04.672Z,68.70
2018-02-19T10:36:32.216Z,68.20
2018-02-19T10:38:59.847Z,67.60
2018-02-19T10:41:27.386Z,67.10
2018-02-19T10:43:54.972Z,66.80
2018-02-19T10:46:22.575Z,66.50
2018-02-19T10:48:50.112Z,66.10
2018-02-19T10:51:18.434Z,64.40
2018-02-19T10:53:46.007Z,65.00
2018-02-19T10:56:13.706Z,66.30
2018-02-19T10:58:44.195Z,66.50
2018-02-19T11:01:11.805Z,66.50
2018-02-19T11:03:39.411Z,64.70
2018-02-19T11:06:07.730Z,64.40
2018-02-19T11:08:35.681Z,64.40
2018-02-19T11:11:03.225Z,65.60
2018-02-19T11:13:31.545Z,65.10
2018-02-19T11:15:59.094Z,65.00
2018-02-19T11:18:26.647Z,66.10
2018-02-19T11:20:55.254Z,67.20
2018-02-19T11:23:22.787Z,67.10
2018-02-19T11:25:51.093Z,66.40
2018-02-19T11:28:18.618Z,66.30
2018-02-19T11:30:46.225Z,65.80
2018-02-19T11:33:13.795Z,65.10
2018-02-19T11:35:41.349Z,64.70
2018-02-19T11:38:09.666Z,65.20
2018-02-19T11:40:37.367Z,65.20
2018-02-19T11:43:04.918Z,64.90
2018-02-19T11:45:32.493Z,62.90
2018-02-19T11:48:00.062Z,64.30
2018-02-19T11:50:27.618Z,64.80
2018-02-19T11:52:55.201Z,65.50
2018-02-19T11:55:22.776Z,64.80
2018-02-19T11:57:50.475Z,64.40
2018-02-19T12:00:18.006Z,63.90
2018-02-19T12:02:46.337Z,64.00
2018-02-19T12:05:13.891Z,64.00
2018-02-19T12:07:41.436Z,63.80
2018-02-19T12:10:09.785Z,63.60
2018-02-19T12:12:37.306Z,63.60
2018-02-19T12:15:04.882Z,63.10
2018-02-19T12:17:32.415Z,63.10
2018-02-19T12:20:00.717Z,61.70
2018-02-19T12:22:28.588Z,61.70
2018-02-19T12:24:56.137Z,62.60
2018-02-19T12:27:24.450Z,61.80
2018-02-19T12:29:51.990Z,61.80
2018-02-19T12:32:19.665Z,62.80
2018-02-19T12:34:47.224Z,61.60
2018-02-19T12:37:14.780Z,61.80
2018-02-19T12:39:42.441Z,60.80
2018-02-19T12:42:09.985Z,61.60
2018-02-19T12:44:37.600Z,60.80
2018-02-19T12:47:05.231Z,61.70
2018-02-19T12:49:33.558Z,62.60
2018-02-19T12:52:01.970Z,62.50
2018-02-19T12:54:29.703Z,61.60
2018-02-19T12:56:57.335Z,60.60
2018-02-19T12:59:25.658Z,61.30
2018-02-19T13:01:53.206Z,61.90
2018-02-19T13:04:20.755Z,60.90
2018-02-19T13:06:49.379Z,60.80
2018-02-19T13:09:16.916Z,60.70
2018-02-19T13:11:45.254Z,60.70
2018-02-19T13:14:12.807Z,60.80
2018-02-19T13:16:40.358Z,61.30
2018-02-19T13:19:07.936Z,61.20
2018-02-19T13:21:35.478Z,59.70
2018-02-19T13:24:03.140Z,60.20
2018-02-19T13:26:30.674Z,60.20
2018-02-19T13:28:58.206Z,61.20
2018-02-19T13:31:25.870Z,61.80
2018-02-19T13:33:53.432Z,61.10
2018-02-19T13:36:20.980Z,60.40
2018-02-19T13:38:48.658Z,59.90
2018-02-19T13:41:16.199Z,60.50
2018-02-19T13:43:45.287Z,60.90
2018-02-19T13:46:13.612Z,60.90
2018-02-19T13:48:41.196Z,60.80
2018-02-19T13:51:08.747Z,60.30
2018-02-19T13:53:36.298Z,61.50
2018-02-19T13:56:03.856Z,59.70
2018-02-19T13:58:31.401Z,60.10
2018-02-19T14:00:59.746Z,61.30
2018-02-19T14:03:27.287Z,61.30
2018-02-19T14:05:54.841Z,60.90
2018-02-19T14:08:22.366Z,59.90
2018-02-19T14:10:49.926Z,60.10
2018-02-19T14:13:17.488Z,60.10
2018-02-19T14:15:45.024Z,60.60
2018-02-19T14:18:12.592Z,61.10
2018-02-19T14:20:40.903Z,61.80
2018-02-19T14:23:08.452Z,61.80
2018-02-19T14:25:36.017Z,63.70
2018-02-19T14:28:03.556Z,64.00
2018-02-19T14:30:31.096Z,64.40
2018-02-19T14:32:58.636Z,64.80
2018-02-19T14:35:26.175Z,63.90
2018-02-19T14:37:53.913Z,64.10
2018-02-19T14:40:22.223Z,63.60
2018-02-19T14:42:49.768Z,63.60
2018-02-19T14:45:17.304Z,64.00
2018-02-19T14:47:45.603Z,64.50
2018-02-19T14:50:13.239Z,64.50
2018-02-19T14:52:41.544Z,63.90
2018-02-19T14:55:10.035Z,63.80
2018-02-19T14:57:37.586Z,64.60
2018-02-19T15:00:05.900Z,65.80
2018-02-19T15:02:33.853Z,65.80
2018-02-19T15:05:01.385Z,66.00
2018-02-19T15:07:28.932Z,66.90
2018-02-19T15:09:56.598Z,66.00
2018-02-19T15:12:24.149Z,66.30
2018-02-19T15:14:51.724Z,66.10
2018-02-19T15:17:19.274Z,66.10
2018-02-19T15:19:46.823Z,66.70
2018-02-19T15:22:14.360Z,66.60
2018-02-19T15:24:42.662Z,66.60
2018-02-19T15:27:10.525Z,66.60
2018-02-19T15:29:38.069Z,66.00
2018-02-19T15:32:05.637Z,66.00
2018-02-19T15:34:33.183Z,66.00
2018-02-19T15:37:00.706Z,66.00
2018-02-19T15:39:28.270Z,66.20
2018-02-19T15:41:55.883Z,66.60
2018-02-19T15:44:23.451Z,66.80
2018-02-19T15:46:51.017Z,66.00
2018-02-19T15:49:18.550Z,65.90
2018-02-19T15:51:46.106Z,65.90
2018-02-19T15:54:13.705Z,66.70
2018-02-19T15:56:41.375Z,67.30
2018-02-19T15:59:08.996Z,67.90
2018-02-19T16:01:36.611Z,67.70
2018-02-19T16:04:04.254Z,67.80
2018-02-19T16:06:31.806Z,68.40
2018-02-19T16:08:59.344Z,69.00
2018-02-19T16:11:27.741Z,68.80
2018-02-19T16:13:55.292Z,68.80
2018-02-19T16:16:23.635Z,68.90
2018-02-19T16:18:51.170Z,68.90
2018-02-19T16:21:18.762Z,69.30
2018-02-19T16:23:46.348Z,69.80
2018-02-19T16:26:13.910Z,70.60
2018-02-19T16:28:41.588Z,70.70
2018-02-19T16:31:09.920Z,71.40
2018-02-19T16:33:37.488Z,71.40
2018-02-19T16:36:05.027Z,71.70
2018-02-19T16:38:32.581Z,72.10
2018-02-19T16:41:00.928Z,72.60
2018-02-19T16:43:28.485Z,72.60
2018-02-19T16:45:56.019Z,72.60
2018-02-19T16:48:24.873Z,72.30
2018-02-19T16:50:53.217Z,72.90
2018-02-19T16:53:20.803Z,72.10
2018-02-19T16:55:48.337Z,71.60
2018-02-19T16:58:15.871Z,72.20
2018-02-19T17:00:44.230Z,72.90
2018-02-19T17:03:11.796Z,72.80
2018-02-19T17:05:39.392Z,73.30
2018-02-19T17:08:07.708Z,73.30
2018-02-19T17:10:35.239Z,73.20
2018-02-19T17:13:02.784Z,73.80
2018-02-19T17:15:30.331Z,73.70
2018-02-19T17:17:57.903Z,73.90
2018-02-19T17:20:25.494Z,73.80
2018-02-19T17:22:53.952Z,73.50
2018-02-19T17:25:21.527Z,73.50
2018-02-19T17:27:49.084Z,73.60
2018-02-19T17:30:16.671Z,73.20
2018-02-19T17:32:45.029Z,73.30
2018-02-19T17:35:15.116Z,73.30
2018-02-19T17:37:42.701Z,73.80
2018-02-19T17:40:10.345Z,74.10
2018-02-19T17:42:37.910Z,74.40
2018-02-19T17:45:05.462Z,74.50
2018-02-19T17:47:33.037Z,74.70
2018-02-19T17:50:00.630Z,75.80
2018-02-19T17:52:28.254Z,75.10
2018-02-19T17:54:56.594Z,75.00
2018-02-19T17:57:24.151Z,75.00
2018-02-19T17:59:51.706Z,74.90
2018-02-19T18:02:19.241Z,75.00
2018-02-19T18:04:46.874Z,75.10
2018-02-19T18:07:14.442Z,75.00
2018-02-19T18:09:41.977Z,75.00
2018-02-19T18:12:09.534Z,75.40
2018-02-19T18:14:37.085Z,75.10
2018-02-19T18:17:04.632Z,75.10
2018-02-19T18:19:32.506Z,75.10
2018-02-19T18:22:00.073Z,75.20
2018-02-19T18:24:27.617Z,75.00
2018-02-19T18:26:55.921Z,75.90
2018-02-19T18:29:23.462Z,75.90
2018-02-19T18:31:51.794Z,76.00
2018-02-19T18:34:19.342Z,76.00
2018-02-19T18:36:46.884Z,75.90
2018-02-19T18:39:14.465Z,76.10
2018-02-19T18:41:42.061Z,76.40
2018-02-19T18:44:09.644Z,76.40
2018-02-19T18:46:37.196Z,76.30
2018-02-19T18:49:04.745Z,76.20
2018-02-19T18:51:32.357Z,75.90
2018-02-19T18:53:59.887Z,75.90
2018-02-19T18:56:27.513Z,76.30
2018-02-19T18:58:55.847Z,75.90
2018-02-19T19:01:23.507Z,75.80
2018-02-19T19:03:51.073Z,76.00
2018-02-19T19:06:18.617Z,76.00
2018-02-19T19:08:58.112Z,76.00
2018-02-19T19:11:25.657Z,76.30
2018-02-19T19:13:53.217Z,76.50
2018-02-19T19:16:20.802Z,76.40
2018-02-19T19:18:48.381Z,76.80
2018-02-19T19:21:15.946Z,76.80
2018-02-19T19:23:44.419Z,76.60
2018-02-19T19:26:11.980Z,76.80
2018-02-19T19:28:39.559Z,76.90
2018-02-19T19:31:07.176Z,77.10
2018-02-19T19:33:34.744Z,76.80
2018-02-19T19:36:02.420Z,76.90
2018-02-19T19:38:30.751Z,77.30
2018-02-19T19:40:59.135Z,78.10
2018-02-19T19:43:27.614Z,77.90
2018-02-19T19:45:55.255Z,77.90
2018-02-19T19:48:22.831Z,78.50
2018-02-19T19:50:50.486Z,78.20
2018-02-19T19:53:18.054Z,78.30
2018-02-19T19:55:45.674Z,78.00
2018-02-19T19:58:14.255Z,77.30
2018-02-19T20:00:42.636Z,77.20
2018-02-19T20:03:10.975Z,77.30
2018-02-19T20:05:38.596Z,77.30
2018-02-19T20:08:06.222Z,77.20
2018-02-19T20:10:34.451Z,77.10
2018-02-19T20:13:02.035Z,77.20
2018-02-19T20:15:29.604Z,77.20
2018-02-19T20:17:57.266Z,77.50
2018-02-19T20:20:24.879Z,77.60
2018-02-19T20:22:52.720Z,77.90
2018-02-19T20:25:20.293Z,78.70
2018-02-19T20:27:47.868Z,79.40
2018-02-19T20:30:15.495Z,78.90
2018-02-19T20:32:43.114Z,78.30
2018-02-19T20:35:10.689Z,78.30
2018-02-19T20:37:39.019Z,78.20
2018-02-19T20:40:06.573Z,78.60
2018-02-19T20:42:34.547Z,79.20
2018-02-19T20:45:02.119Z,79.60
2018-02-19T20:47:29.708Z,80.10
2018-02-19T20:49:57.308Z,80.10
2018-02-19T20:52:24.860Z,79.60
2018-02-19T20:54:53.130Z,79.60
2018-02-19T20:57:20.706Z,79.50
2018-02-19T20:59:48.316Z,79.40
2018-02-19T21:02:15.869Z,79.60
2018-02-19T21:04:44.195Z,79.60
2018-02-19T21:07:11.750Z,79.60
2018-02-19T21:09:39.377Z,80.40
2018-02-19T21:12:07.739Z,81.10
2018-02-19T21:14:35.301Z,81.00
2018-02-19T21:17:02.837Z,80.50
2018-02-19T21:19:30.396Z,80.70
2018-02-19T21:21:58.033Z,80.60
2018-02-19T21:24:26.347Z,81.50
2018-02-19T21:26:53.927Z,81.50
2018-02-19T21:29:21.475Z,82.00
2018-02-19T21:31:49.027Z,82.00
2018-02-19T21:34:16.612Z,82.20
2018-02-19T21:36:44.145Z,80.90
2018-02-19T21:39:11.691Z,80.90
2018-02-19T21:41:39.237Z,80.80
2018-02-19T21:44:06.789Z,81.10
2018-02-19T21:46:34.472Z,81.70
2018-02-19T21:49:02.021Z,82.10
2018-02-19T21:51:29.577Z,82.10
2018-02-19T21:53:57.333Z,81.60
2018-02-19T21:56:24.870Z,81.70
2018-02-19T21:58:53.207Z,81.50
2018-02-19T22:01:20.750Z,81.40
2018-02-19T22:03:48.309Z,80.80
2018-02-19T22:06:15.968Z,81.20
2018-02-19T22:08:43.516Z,81.90
2018-02-19T22:11:11.849Z,80.90
2018-02-19T22:13:39.421Z,80.90
2018-02-19T22:16:07.807Z,79.10
2018-02-19T22:18:35.342Z,79.10
2018-02-19T22:21:02.889Z,79.40
2018-02-19T22:23:30.450Z,79.70
2018-02-19T22:25:58.061Z,79.80
2018-02-19T22:28:25.715Z,80.10
2018-02-19T22:30:53.206Z,80.10
2018-02-19T22:33:20.750Z,79.80
2018-02-19T22:35:48.331Z,80.40
2018-02-19T22:38:15.886Z,80.20
2018-02-19T22:40:43.431Z,80.50
2018-02-19T22:43:10.971Z,80.90
2018-02-19T22:45:39.280Z,80.10
2018-02-19T22:48:07.233Z,80.10
2018-02-19T22:50:35.529Z,80.00
2018-02-19T22:53:03.058Z,79.90
2018-02-19T22:55:30.720Z,80.20
2018-02-19T22:57:58.255Z,80.30
2018-02-19T23:00:26.586Z,80.30
2018-02-19T23:02:54.873Z,80.40
2018-02-19T23:05:23.188Z,80.70
2018-02-19T23:07:50.728Z,80.70
2018-02-19T23:10:18.262Z,80.80
2018-02-19T23:12:45.863Z,80.90
2018-02-19T23:15:13.402Z,81.00
2018-02-19T23:17:41.714Z,81.60
2018-02-19T23:20:09.249Z,81.60
2018-02-19T23:22:37.600Z,82.30
2018-02-19T23:25:05.165Z,82.10
2018-02-19T23:27:32.729Z,82.40
2018-02-19T23:30:00.270Z,82.50
2018-02-19T23:32:27.803Z,82.60
2018-02-19T23:34:56.111Z,82.40
2018-02-19T23:37:23.676Z,82.40
2018-02-19T23:39:51.218Z,82.50
2018-02-19T23:42:19.589Z,82.80
2018-02-19T23:44:47.129Z,82.80
2018-02-19T23:47:14.681Z,82.90
2018-02-19T23:49:42.237Z,83.00
2018-02-19T23:52:09.774Z,82.90
2018-02-19T23:54:37.302Z,83.10
2018-02-19T23:57:04.829Z,83.00
2018-02-19T23:59:32.437Z,83.00
